Time;durP1;ratioP1;P1;durP2;ratioP2;P2;SDS_P1;SDS_P2;PMS_P1;PMS_P2;Temp;Humidity;BMP_temperature;BMP_pressure;BME280_temperature;BME280_humidity;BME280_pressure;Samples;Min_cycle;Max_cycle;Signal;HPM_P1;HPM_P2
2022/01/13 00:00:10;;;;;;;33.55;11.90;;;;;;;;;;4917915;29;20076;-76
2022/01/13 00:02:37;;;;;;;30.75;12.50;;;;;;;;;;4919250;29;20036;-75
2022/01/13 00:05:04;;;;;;;35.25;13.68;;;;;;;;;;4917866;29;20036;-75
2022/01/13 00:07:30;;;;;;;42.47;13.68;;;;;;;;;;4919805;29;20055;-75
2022/01/13 00:09:58;;;;;;;35.00;13.30;;;;;;;;;;4919389;29;20442;-74
2022/01/13 00:12:28;;;;;;;33.70;13.68;;;;;;;;;;4917775;29;20039;-74
2022/01/13 00:17:56;;;;;;;30.17;12.25;;;;;;;;;;4919813;29;20036;-75
2022/01/13 00:25:38;;;;;;;38.65;13.52;;;;;;;;;;4919556;29;20047;-75
2022/01/13 00:28:13;;;;;;;34.03;13.63;;;;;;;;;;4902792;29;20024;-74
2022/01/13 00:30:39;;;;;;;36.28;13.25;;;;;;;;;;4918718;29;20032;-74
2022/01/13 00:33:05;;;;;;;34.05;13.18;;;;;;;;;;4901781;29;20366;-73
2022/01/13 00:35:31;;;;;;;39.38;14.05;;;;;;;;;;4901728;29;20469;-74
2022/01/13 00:37:57;;;;;;;36.55;13.88;;;;;;;;;;4918666;29;20024;-75
2022/01/13 00:40:23;;;;;;;33.08;12.65;;;;;;;;;;4901641;29;20028;-74
2022/01/13 00:42:50;;;;;;;33.13;13.20;;;;;;;;;;4918574;29;20035;-74
2022/01/13 00:45:16;;;;;;;34.53;12.95;;;;;;;;;;4901703;29;20036;-75
2022/01/13 00:47:42;;;;;;;34.90;14.25;;;;;;;;;;4902420;29;20038;-76
2022/01/13 00:50:09;;;;;;;34.92;13.93;;;;;;;;;;4901403;29;20119;-76
2022/01/13 00:52:36;;;;;;;35.63;13.40;;;;;;;;;;4918548;29;20028;-74
2022/01/13 00:55:06;;;;;;;33.65;13.55;;;;;;;;;;4919014;29;20035;-75
2022/01/13 00:57:33;;;;;;;34.03;12.57;;;;;;;;;;4901568;29;20084;-76
2022/01/13 01:00:00;;;;;;;34.88;13.60;;;;;;;;;;4918508;29;20391;-75
2022/01/13 01:02:27;;;;;;;33.63;12.40;;;;;;;;;;4918452;29;20039;-75
2022/01/13 01:04:53;;;;;;;28.55;12.52;;;;;;;;;;4923615;29;20481;-76
2022/01/13 01:07:19;;;;;;;35.55;12.40;;;;;;;;;;4918984;29;20032;-74
2022/01/13 01:09:50;;;;;;;28.90;10.82;;;;;;;;;;4900878;29;20393;-75
2022/01/13 01:12:17;;;;;;;28.73;12.10;;;;;;;;;;4900948;29;20028;-75
2022/01/13 01:14:53;;;;;;;35.13;12.57;;;;;;;;;;4900837;29;20493;-75
2022/01/13 01:17:19;;;;;;;29.05;12.43;;;;;;;;;;4900937;29;20032;-74
2022/01/13 01:19:49;;;;;;;36.10;11.75;;;;;;;;;;4918265;29;20473;-75
2022/01/13 01:27:28;;;;;;;29.17;11.05;;;;;;;;;;4917571;29;20075;-72
2022/01/13 01:30:04;;;;;;;30.48;11.45;;;;;;;;;;4900660;29;20060;-74
2022/01/13 01:32:33;;;;;;;32.75;11.25;;;;;;;;;;4917580;29;20075;-75
2022/01/13 01:35:02;;;;;;;23.15;9.55;;;;;;;;;;4917548;29;20027;-75
2022/01/13 01:37:30;;;;;;;32.30;11.50;;;;;;;;;;4885428;29;20128;-75
2022/01/13 01:39:58;;;;;;;30.83;11.07;;;;;;;;;;4900438;29;20031;-73
2022/01/13 01:42:25;;;;;;;27.23;9.63;;;;;;;;;;4900499;29;20422;-74
2022/01/13 01:44:54;;;;;;;27.55;10.73;;;;;;;;;;4900477;29;20036;-73
2022/01/13 01:47:21;;;;;;;30.88;10.25;;;;;;;;;;4901285;29;20028;-74
2022/01/13 01:49:49;;;;;;;25.67;10.48;;;;;;;;;;4900478;29;20024;-73
2022/01/13 01:52:16;;;;;;;21.63;8.55;;;;;;;;;;4900395;29;20055;-75
2022/01/13 01:54:43;;;;;;;25.88;9.60;;;;;;;;;;4900385;29;20032;-74
2022/01/13 01:57:09;;;;;;;24.65;8.63;;;;;;;;;;4900332;29;20456;-74
2022/01/13 01:59:39;;;;;;;25.88;9.32;;;;;;;;;;4917394;29;20064;-76
2022/01/13 02:02:06;;;;;;;24.85;10.32;;;;;;;;;;4917343;29;20024;-75
2022/01/13 02:04:33;;;;;;;22.17;8.55;;;;;;;;;;4917235;29;20032;-74
2022/01/13 02:07:02;;;;;;;29.33;10.55;;;;;;;;;;4917532;29;20087;-74
2022/01/13 02:09:29;;;;;;;25.85;9.93;;;;;;;;;;4900292;29;20031;-74
2022/01/13 02:11:59;;;;;;;21.60;9.82;;;;;;;;;;4900139;29;20028;-74
2022/01/13 02:16:52;;;;;;;24.45;9.60;;;;;;;;;;4917277;29;20024;-74
2022/01/13 02:19:19;;;;;;;24.15;9.25;;;;;;;;;;4919003;29;20059;-73
2022/01/13 02:21:46;;;;;;;25.27;9.93;;;;;;;;;;4915683;29;20134;-74
2022/01/13 02:24:12;;;;;;;28.00;10.52;;;;;;;;;;4921021;29;20039;-74
2022/01/13 02:26:38;;;;;;;24.05;10.02;;;;;;;;;;4920978;29;20031;-75
2022/01/13 02:29:04;;;;;;;22.65;9.00;;;;;;;;;;4921211;29;20032;-73
2022/01/13 02:31:30;;;;;;;24.27;9.00;;;;;;;;;;4920923;29;20079;-74
2022/01/13 02:33:57;;;;;;;21.48;8.95;;;;;;;;;;4919678;29;20024;-74
2022/01/13 02:36:24;;;;;;;18.42;8.07;;;;;;;;;;4920912;29;20107;-73
2022/01/13 02:38:51;;;;;;;24.58;9.85;;;;;;;;;;4919669;29;20039;-75
2022/01/13 02:41:17;;;;;;;23.08;9.98;;;;;;;;;;4919709;29;20133;-75
2022/01/13 02:43:46;;;;;;;24.58;10.57;;;;;;;;;;4919558;29;20054;-76
2022/01/13 02:46:33;;;;;;;20.92;8.88;;;;;;;;;;4919602;29;20038;-76
2022/01/13 02:49:00;;;;;;;21.50;8.57;;;;;;;;;;4920428;29;20028;-74
2022/01/13 02:51:27;;;;;;;21.90;9.02;;;;;;;;;;4920742;29;20469;-75
2022/01/13 02:53:53;;;;;;;21.15;8.85;;;;;;;;;;4920371;29;20112;-75
2022/01/13 02:56:20;;;;;;;21.92;9.07;;;;;;;;;;4919019;29;20036;-76
2022/01/13 02:58:46;;;;;;;25.48;9.95;;;;;;;;;;4920610;29;20438;-75
2022/01/13 03:01:13;;;;;;;24.55;8.57;;;;;;;;;;4918956;29;20058;-69
2022/01/13 03:03:40;;;;;;;19.90;9.68;;;;;;;;;;4920341;29;20119;-70
2022/01/13 03:06:11;;;;;;;21.63;9.25;;;;;;;;;;4918898;29;20032;-76
2022/01/13 03:08:43;;;;;;;24.17;9.40;;;;;;;;;;4918871;29;20060;-76
2022/01/13 03:11:10;;;;;;;22.23;9.63;;;;;;;;;;4919163;29;20028;-76
2022/01/13 03:13:36;;;;;;;20.77;9.23;;;;;;;;;;4918923;29;20052;-74
2022/01/13 03:16:12;;;;;;;20.17;8.02;;;;;;;;;;4919906;29;20029;-75
2022/01/13 03:18:39;;;;;;;25.98;10.00;;;;;;;;;;4918724;29;20126;-74
2022/01/13 03:21:06;;;;;;;21.90;9.90;;;;;;;;;;4918530;29;20135;-76
2022/01/13 03:23:33;;;;;;;25.85;11.18;;;;;;;;;;4919733;29;20028;-76
2022/01/13 03:25:59;;;;;;;26.20;10.23;;;;;;;;;;4919766;29;20032;-75
2022/01/13 03:28:30;;;;;;;22.90;10.35;;;;;;;;;;4918609;29;20024;-73
2022/01/13 03:30:58;;;;;;;25.42;10.38;;;;;;;;;;4919008;29;20020;-74
2022/01/13 03:33:24;;;;;;;28.70;12.40;;;;;;;;;;4918458;29;20393;-74
2022/01/13 03:35:50;;;;;;;27.15;10.35;;;;;;;;;;4902967;29;20031;-75
2022/01/13 03:38:20;;;;;;;25.75;11.88;;;;;;;;;;4920103;29;20040;-74
2022/01/13 03:40:46;;;;;;;29.67;11.32;;;;;;;;;;4919514;29;20029;-76
2022/01/13 03:43:15;;;;;;;29.10;11.80;;;;;;;;;;4920524;29;20032;-76
2022/01/13 03:45:41;;;;;;;27.30;11.25;;;;;;;;;;4918377;29;20055;-76
2022/01/13 03:48:09;;;;;;;26.15;10.00;;;;;;;;;;4919797;29;20056;-75
2022/01/13 03:50:35;;;;;;;24.75;11.00;;;;;;;;;;4918319;29;20032;-76
2022/01/13 03:53:02;;;;;;;30.63;11.68;;;;;;;;;;4918144;29;20024;-75
2022/01/13 03:55:31;;;;;;;23.98;10.02;;;;;;;;;;4918169;29;20501;-72
2022/01/13 03:58:16;;;;;;;32.97;10.48;;;;;;;;;;4919498;29;20039;-74
2022/01/13 04:01:00;;;;;;;29.98;11.20;;;;;;;;;;4918190;29;20028;-76
2022/01/13 04:03:28;;;;;;;25.17;10.93;;;;;;;;;;4919688;29;20448;-75
2022/01/13 04:06:03;;;;;;;24.02;10.43;;;;;;;;;;4919290;29;20050;-76
2022/01/13 04:08:30;;;;;;;27.85;11.23;;;;;;;;;;4919254;29;20060;-75
2022/01/13 04:10:59;;;;;;;29.48;11.95;;;;;;;;;;4919477;29;20555;-76
2022/01/13 04:16:10;;;;;;;28.83;11.90;;;;;;;;;;4919158;29;20035;-76
2022/01/13 04:18:36;;;;;;;27.67;12.40;;;;;;;;;;4919096;29;20103;-75
2022/01/13 04:21:03;;;;;;;26.65;11.38;;;;;;;;;;4917372;29;20064;-75
2022/01/13 04:23:29;;;;;;;28.52;12.68;;;;;;;;;;4917792;29;20099;-76
2022/01/13 04:25:56;;;;;;;25.13;11.57;;;;;;;;;;4919189;29;20043;-75
2022/01/13 04:28:27;;;;;;;28.20;11.82;;;;;;;;;;4919157;29;20160;-74
2022/01/13 04:31:00;;;;;;;36.72;12.98;;;;;;;;;;4922579;29;20052;-76
2022/01/13 04:33:30;;;;;;;31.35;12.63;;;;;;;;;;4920368;29;20035;-75
2022/01/13 04:35:57;;;;;;;29.25;12.50;;;;;;;;;;4919011;29;20028;-75
2022/01/13 04:38:23;;;;;;;29.17;12.95;;;;;;;;;;4918484;29;20111;-76
2022/01/13 04:40:55;;;;;;;26.98;12.65;;;;;;;;;;4918384;29;20064;-75
2022/01/13 04:43:22;;;;;;;29.15;12.90;;;;;;;;;;4918291;29;20020;-74
2022/01/13 04:45:48;;;;;;;34.72;14.15;;;;;;;;;;4917033;29;20047;-75
2022/01/13 04:48:15;;;;;;;33.20;12.27;;;;;;;;;;4917096;29;20028;-72
2022/01/13 04:50:41;;;;;;;28.58;11.82;;;;;;;;;;4917012;29;20035;-73
2022/01/13 04:53:08;;;;;;;33.70;12.95;;;;;;;;;;4918191;29;20039;-74
2022/01/13 04:55:36;;;;;;;33.22;12.73;;;;;;;;;;4916974;29;20370;-75
2022/01/13 04:58:03;;;;;;;26.42;11.80;;;;;;;;;;4916880;29;20027;-74
2022/01/13 05:00:29;;;;;;;30.85;11.80;;;;;;;;;;4916922;29;20087;-74
2022/01/13 05:02:55;;;;;;;30.15;12.32;;;;;;;;;;4916889;29;20055;-74
2022/01/13 05:05:21;;;;;;;26.42;11.95;;;;;;;;;;4917926;29;20451;-74
2022/01/13 05:07:49;;;;;;;33.65;13.65;;;;;;;;;;4918048;29;20222;-75
2022/01/13 05:10:15;;;;;;;35.63;12.27;;;;;;;;;;4918529;29;20114;-75
2022/01/13 05:12:46;;;;;;;28.52;12.77;;;;;;;;;;4918019;29;20032;-75
2022/01/13 05:15:21;;;;;;;31.42;13.52;;;;;;;;;;4916726;29;20032;-74
2022/01/13 05:20:21;;;;;;;31.00;12.43;;;;;;;;;;4918412;29;20043;-72
2022/01/13 05:22:48;;;;;;;35.50;13.15;;;;;;;;;;4901110;29;20043;-74
2022/01/13 05:25:14;;;;;;;31.30;13.90;;;;;;;;;;4900610;29;20054;-75
2022/01/13 05:27:40;;;;;;;33.45;12.95;;;;;;;;;;4900729;29;20071;-75
2022/01/13 05:30:08;;;;;;;37.50;13.88;;;;;;;;;;4900804;29;20445;-73
2022/01/13 05:32:34;;;;;;;33.30;13.38;;;;;;;;;;4900705;29;20024;-75
2022/01/13 05:35:01;;;;;;;32.25;13.77;;;;;;;;;;4918367;29;20026;-75
2022/01/13 05:37:27;;;;;;;32.63;12.93;;;;;;;;;;4900787;29;20032;-75
2022/01/13 05:39:53;;;;;;;31.00;12.65;;;;;;;;;;4900579;29;20028;-74
2022/01/13 05:42:20;;;;;;;36.80;14.00;;;;;;;;;;4917608;29;20028;-76
2022/01/13 05:44:47;;;;;;;34.03;13.57;;;;;;;;;;4917495;29;20047;-75
2022/01/13 05:47:13;;;;;;;32.90;13.32;;;;;;;;;;4900472;29;20038;-75
2022/01/13 05:49:40;;;;;;;33.72;13.35;;;;;;;;;;4919824;29;20031;-68
2022/01/13 05:52:07;;;;;;;29.48;12.57;;;;;;;;;;4918014;29;20058;-71
2022/01/13 05:54:33;;;;;;;31.25;13.65;;;;;;;;;;4918658;29;20171;-71
2022/01/13 05:56:59;;;;;;;35.67;13.55;;;;;;;;;;4935996;29;20026;-71
2022/01/13 05:59:25;;;;;;;42.78;15.25;;;;;;;;;;4936085;29;20043;-71
2022/01/13 06:01:52;;;;;;;37.53;14.75;;;;;;;;;;4918979;29;20047;-72
2022/01/13 06:04:18;;;;;;;33.40;12.40;;;;;;;;;;4936215;29;20043;-71
2022/01/13 06:06:44;;;;;;;35.58;14.95;;;;;;;;;;4936087;29;20024;-73
2022/01/13 06:09:10;;;;;;;32.50;13.82;;;;;;;;;;4923859;29;20075;-73
2022/01/13 06:11:43;;;;;;;36.17;13.43;;;;;;;;;;4916908;29;20036;-73
2022/01/13 06:14:10;;;;;;;36.40;13.25;;;;;;;;;;4900787;29;20110;-73
2022/01/13 06:16:36;;;;;;;36.20;13.73;;;;;;;;;;4905993;29;20028;-71
2022/01/13 06:19:02;;;;;;;30.75;13.10;;;;;;;;;;4901009;29;20035;-71
2022/01/13 06:21:28;;;;;;;33.75;14.00;;;;;;;;;;4916721;29;20044;-71
2022/01/13 06:23:55;;;;;;;37.90;14.43;;;;;;;;;;4916828;29;20040;-73
2022/01/13 06:26:21;;;;;;;36.53;16.75;;;;;;;;;;4899872;29;20032;-73
2022/01/13 06:28:47;;;;;;;36.13;14.02;;;;;;;;;;4899895;29;20043;-73
2022/01/13 06:31:13;;;;;;;36.97;13.02;;;;;;;;;;4899886;29;20096;-71
2022/01/13 06:33:39;;;;;;;31.50;12.23;;;;;;;;;;4899809;29;20024;-72
2022/01/13 06:36:05;;;;;;;35.67;14.30;;;;;;;;;;4916857;29;20469;-73
2022/01/13 06:38:32;;;;;;;39.83;17.20;;;;;;;;;;4899811;29;20024;-73
2022/01/13 06:40:58;;;;;;;37.90;15.32;;;;;;;;;;4916799;29;20051;-73
2022/01/13 06:43:24;;;;;;;43.13;18.08;;;;;;;;;;4899795;29;20033;-74
2022/01/13 06:45:50;;;;;;;39.00;16.55;;;;;;;;;;4912831;29;20050;-74
2022/01/13 06:48:17;;;;;;;43.00;17.38;;;;;;;;;;4918709;29;20063;-73
2022/01/13 06:50:43;;;;;;;38.53;16.70;;;;;;;;;;4935683;29;20091;-73
2022/01/13 06:53:09;;;;;;;44.72;16.17;;;;;;;;;;4935651;29;20034;-73
2022/01/13 06:55:35;;;;;;;35.55;14.60;;;;;;;;;;4935503;29;20066;-73
2022/01/13 06:58:01;;;;;;;40.83;16.13;;;;;;;;;;4935617;29;20031;-73
2022/01/13 07:00:27;;;;;;;37.28;16.13;;;;;;;;;;4918601;29;20477;-73
2022/01/13 07:02:56;;;;;;;47.72;15.57;;;;;;;;;;4918873;29;20465;-73
2022/01/13 07:05:23;;;;;;;39.42;15.75;;;;;;;;;;4918479;29;20496;-73
2022/01/13 07:07:49;;;;;;;212.90;61.47;;;;;;;;;;4938934;29;20028;-73
2022/01/13 07:10:15;;;;;;;47.42;19.70;;;;;;;;;;4939307;29;20035;-72
2022/01/13 07:12:42;;;;;;;31.90;14.18;;;;;;;;;;4939008;29;20038;-73
2022/01/13 07:15:09;;;;;;;35.45;14.30;;;;;;;;;;4938875;29;20218;-73
2022/01/13 07:17:35;;;;;;;33.70;13.43;;;;;;;;;;4938857;29;20031;-73
2022/01/13 07:20:01;;;;;;;29.92;12.80;;;;;;;;;;4938912;29;20107;-73
2022/01/13 07:22:27;;;;;;;29.95;11.23;;;;;;;;;;4921726;29;20408;-73
2022/01/13 07:24:54;;;;;;;31.30;12.68;;;;;;;;;;4921566;29;20397;-73
2022/01/13 07:27:20;;;;;;;30.38;13.05;;;;;;;;;;4938684;29;20019;-71
2022/01/13 07:29:48;;;;;;;29.92;11.80;;;;;;;;;;4938507;29;20027;-73
2022/01/13 07:32:15;;;;;;;30.48;12.85;;;;;;;;;;4921500;29;20031;-73
2022/01/13 07:34:41;;;;;;;20.80;8.52;;;;;;;;;;4938520;29;20102;-73
2022/01/13 07:37:08;;;;;;;23.17;10.38;;;;;;;;;;4938489;29;20087;-73
2022/01/13 07:39:38;;;;;;;25.48;11.98;;;;;;;;;;4938323;29;20392;-73
2022/01/13 07:42:04;;;;;;;24.85;11.75;;;;;;;;;;4938437;29;20030;-73
2022/01/13 07:44:31;;;;;;;33.22;10.88;;;;;;;;;;4935825;29;20051;-71
2022/01/13 07:46:58;;;;;;;31.50;12.05;;;;;;;;;;4902349;29;20469;-72
2022/01/13 07:49:24;;;;;;;29.50;13.05;;;;;;;;;;4919320;29;20032;-71
2022/01/13 07:51:50;;;;;;;26.25;12.43;;;;;;;;;;4919170;29;20036;-70
2022/01/13 07:54:16;;;;;;;25.92;12.35;;;;;;;;;;4919291;29;20119;-70
2022/01/13 07:56:42;;;;;;;29.67;13.63;;;;;;;;;;4919077;29;20386;-71
2022/01/13 07:59:08;;;;;;;32.17;14.82;;;;;;;;;;4902165;29;20081;-71
2022/01/13 08:01:35;;;;;;;30.58;14.27;;;;;;;;;;4919060;29;20039;-72
2022/01/13 08:04:01;;;;;;;27.90;13.48;;;;;;;;;;4919075;29;20034;-72
2022/01/13 08:06:28;;;;;;;29.70;13.63;;;;;;;;;;4902216;29;20055;-72
2022/01/13 08:08:54;;;;;;;31.98;14.18;;;;;;;;;;4919176;29;20031;-70
2022/01/13 08:11:20;;;;;;;30.30;13.85;;;;;;;;;;4907016;29;20084;-70
2022/01/13 08:13:46;;;;;;;31.92;14.60;;;;;;;;;;4919973;29;20035;-72
2022/01/13 08:16:16;;;;;;;27.42;13.07;;;;;;;;;;4901573;29;20039;-69
2022/01/13 08:21:28;;;;;;;30.20;14.05;;;;;;;;;;4918610;29;20055;-70
2022/01/13 08:23:54;;;;;;;25.60;12.30;;;;;;;;;;4901677;29;20040;-70
2022/01/13 08:26:21;;;;;;;27.20;11.75;;;;;;;;;;4901661;29;20477;-71
2022/01/13 08:28:47;;;;;;;25.25;11.88;;;;;;;;;;4901610;29;20119;-68
2022/01/13 08:31:13;;;;;;;24.38;11.95;;;;;;;;;;4927008;29;20038;-68
2022/01/13 08:33:39;;;;;;;25.38;11.57;;;;;;;;;;4920219;29;20054;-71
2022/01/13 08:36:06;;;;;;;23.70;10.95;;;;;;;;;;4920376;29;20119;-71
2022/01/13 08:38:34;;;;;;;24.48;11.82;;;;;;;;;;4920691;29;20063;-68
2022/01/13 08:41:00;;;;;;;25.00;11.98;;;;;;;;;;4937251;29;20476;-69
2022/01/13 08:43:28;;;;;;;21.65;10.07;;;;;;;;;;4920103;29;20055;-71
2022/01/13 08:45:54;;;;;;;22.48;9.85;;;;;;;;;;4906712;29;20043;-72
2022/01/13 08:48:21;;;;;;;20.15;9.38;;;;;;;;;;4918141;29;20028;-70
2022/01/13 08:50:47;;;;;;;22.45;10.32;;;;;;;;;;4916912;29;20036;-69
2022/01/13 08:53:17;;;;;;;22.13;9.70;;;;;;;;;;4916842;29;20036;-69
2022/01/13 08:55:43;;;;;;;19.63;8.55;;;;;;;;;;4917997;29;20439;-72
2022/01/13 08:58:09;;;;;;;12.95;5.28;;;;;;;;;;4916775;29;20404;-71
2022/01/13 09:00:37;;;;;;;13.27;5.28;;;;;;;;;;4916728;29;20118;-72
2022/01/13 09:03:07;;;;;;;15.00;5.43;;;;;;;;;;4915987;29;20028;-72
2022/01/13 09:05:33;;;;;;;10.98;4.85;;;;;;;;;;4915522;29;20504;-72
2022/01/13 09:08:00;;;;;;;7.82;3.42;;;;;;;;;;4917513;29;20469;-72
2022/01/13 09:10:26;;;;;;;17.15;5.25;;;;;;;;;;4921165;29;20031;-69
2022/01/13 09:12:52;;;;;;;12.77;5.15;;;;;;;;;;4919688;29;20024;-70
2022/01/13 09:15:29;;;;;;;16.10;4.40;;;;;;;;;;4936655;29;20086;-70
2022/01/13 09:17:56;;;;;;;13.20;4.63;;;;;;;;;;4937169;29;20058;-70
2022/01/13 09:20:22;;;;;;;15.43;6.93;;;;;;;;;;4920217;29;20485;-72
2022/01/13 09:22:48;;;;;;;11.73;4.93;;;;;;;;;;4935365;29;20039;-70
2022/01/13 09:25:14;;;;;;;11.27;4.15;;;;;;;;;;4935223;29;20047;-71
2022/01/13 09:27:41;;;;;;;12.02;4.95;;;;;;;;;;4936312;29;20039;-71
2022/01/13 09:30:09;;;;;;;16.83;4.97;;;;;;;;;;4934671;29;20031;-69
2022/01/13 09:32:36;;;;;;;10.73;4.80;;;;;;;;;;4935124;29;20469;-69
2022/01/13 09:35:03;;;;;;;11.98;4.82;;;;;;;;;;4935142;29;20030;-71
2022/01/13 09:37:29;;;;;;;13.68;4.68;;;;;;;;;;4936276;29;20083;-69
2022/01/13 09:39:56;;;;;;;11.65;5.07;;;;;;;;;;4934249;29;20445;-70
2022/01/13 09:42:22;;;;;;;8.75;4.38;;;;;;;;;;4934747;29;20032;-70
2022/01/13 09:44:49;;;;;;;9.85;4.97;;;;;;;;;;4934763;29;20501;-68
2022/01/13 09:47:15;;;;;;;9.43;4.72;;;;;;;;;;4935033;29;20032;-68
2022/01/13 09:49:43;;;;;;;12.40;5.03;;;;;;;;;;4936137;29;20110;-68
2022/01/13 09:52:10;;;;;;;9.38;4.65;;;;;;;;;;4935508;29;20026;-68
2022/01/13 09:54:36;;;;;;;13.85;5.55;;;;;;;;;;4934924;29;20610;-72
2022/01/13 09:57:02;;;;;;;12.13;5.55;;;;;;;;;;4934947;29;20074;-71
2022/01/13 09:59:28;;;;;;;13.32;5.70;;;;;;;;;;4934807;29;20027;-71
2022/01/13 10:01:55;;;;;;;13.27;6.18;;;;;;;;;;4936137;29;20027;-71
2022/01/13 10:04:21;;;;;;;12.98;6.28;;;;;;;;;;4939405;29;20032;-69
2022/01/13 10:06:48;;;;;;;14.68;5.20;;;;;;;;;;4937291;29;20485;-73
2022/01/13 10:09:15;;;;;;;13.25;5.15;;;;;;;;;;4936628;29;20122;-73
2022/01/13 10:11:52;;;;;;;16.48;6.30;;;;;;;;;;4935994;29;20164;-70
2022/01/13 10:16:59;;;;;;;12.00;5.55;;;;;;;;;;4935984;29;20032;-70
2022/01/13 10:19:31;;;;;;;15.05;6.60;;;;;;;;;;4934732;29;20027;-70
2022/01/13 10:22:00;;;;;;;13.35;5.55;;;;;;;;;;4934465;29;20058;-69
2022/01/13 10:24:28;;;;;;;13.15;6.05;;;;;;;;;;4936123;29;20069;-70
2022/01/13 10:27:08;;;;;;;16.67;6.53;;;;;;;;;;4934645;29;20541;-72
2022/01/13 10:29:37;;;;;;;13.45;5.90;;;;;;;;;;4934556;29;20126;-69
2022/01/13 10:32:03;;;;;;;14.85;6.03;;;;;;;;;;4936202;29;20495;-68
2022/01/13 10:34:32;;;;;;;14.25;6.53;;;;;;;;;;4934596;29;20027;-68
2022/01/13 10:36:58;;;;;;;14.45;6.30;;;;;;;;;;4934567;29;20028;-71
2022/01/13 10:39:43;;;;;;;13.93;6.47;;;;;;;;;;4935942;29;20067;-71
2022/01/13 10:42:31;;;;;;;13.10;6.00;;;;;;;;;;4939537;29;20034;-70
2022/01/13 10:44:58;;;;;;;13.02;5.78;;;;;;;;;;4938046;29;20063;-71
2022/01/13 10:47:26;;;;;;;14.50;6.57;;;;;;;;;;4938197;29;20126;-72
2022/01/13 10:49:52;;;;;;;11.77;5.60;;;;;;;;;;4939309;29;20038;-72
2022/01/13 10:52:21;;;;;;;12.95;5.50;;;;;;;;;;4938066;29;20480;-69
2022/01/13 10:54:47;;;;;;;15.77;6.57;;;;;;;;;;4938039;29;20059;-72
2022/01/13 10:57:23;;;;;;;14.15;5.38;;;;;;;;;;4937957;29;20024;-73
2022/01/13 10:59:50;;;;;;;9.13;4.43;;;;;;;;;;4939385;29;20028;-73
2022/01/13 11:02:17;;;;;;;16.20;5.20;;;;;;;;;;4939055;29;20508;-71
2022/01/13 11:04:44;;;;;;;11.52;4.80;;;;;;;;;;4939239;29;20119;-72
2022/01/13 11:07:14;;;;;;;15.05;5.30;;;;;;;;;;4938029;29;20028;-71
2022/01/13 11:09:42;;;;;;;13.95;5.38;;;;;;;;;;4937715;29;20385;-71
2022/01/13 11:12:10;;;;;;;10.43;4.53;;;;;;;;;;4938827;29;20024;-69
2022/01/13 11:14:42;;;;;;;12.30;3.92;;;;;;;;;;4937730;29;20110;-71
2022/01/13 11:17:10;;;;;;;12.88;4.75;;;;;;;;;;4939096;29;20377;-72
2022/01/13 11:19:36;;;;;;;13.43;4.90;;;;;;;;;;4938945;29;20495;-70
2022/01/13 11:22:06;;;;;;;12.13;4.90;;;;;;;;;;4937401;29;20405;-71
2022/01/13 11:24:32;;;;;;;9.98;4.65;;;;;;;;;;4937395;29;20039;-71
2022/01/13 11:26:59;;;;;;;10.10;5.30;;;;;;;;;;4937430;29;20031;-74
2022/01/13 11:29:25;;;;;;;12.15;5.75;;;;;;;;;;4938547;29;20024;-72
2022/01/13 11:31:51;;;;;;;16.15;5.88;;;;;;;;;;4937546;29;20111;-72
2022/01/13 11:34:18;;;;;;;13.23;6.07;;;;;;;;;;4937298;29;20408;-72
2022/01/13 11:36:44;;;;;;;13.68;5.97;;;;;;;;;;4938813;29;20083;-70
2022/01/13 11:39:11;;;;;;;14.70;6.18;;;;;;;;;;4938726;29;20031;-69
2022/01/13 11:41:55;;;;;;;14.57;5.95;;;;;;;;;;4938312;29;20393;-70
2022/01/13 11:44:22;;;;;;;14.25;6.35;;;;;;;;;;4935480;29;20130;-72
2022/01/13 11:46:49;;;;;;;14.38;6.53;;;;;;;;;;4919240;29;20102;-72
2022/01/13 11:49:19;;;;;;;13.77;7.07;;;;;;;;;;4919325;29;20024;-71
2022/01/13 11:52:02;;;;;;;14.93;7.25;;;;;;;;;;4918381;29;20046;-70
2022/01/13 11:54:36;;;;;;;12.40;6.78;;;;;;;;;;4918017;29;20054;-70
2022/01/13 11:57:16;;;;;;;11.23;6.22;;;;;;;;;;4919090;29;20020;-72
2022/01/13 12:00:00;;;;;;;11.73;5.57;;;;;;;;;;4922101;29;20385;-72
2022/01/13 12:02:31;;;;;;;13.20;6.50;;;;;;;;;;4920543;29;20028;-70
2022/01/13 12:05:05;;;;;;;13.57;6.28;;;;;;;;;;4918907;29;20413;-72
2022/01/13 12:07:39;;;;;;;15.68;6.55;;;;;;;;;;4917675;29;20036;-71
2022/01/13 12:10:06;;;;;;;14.13;6.15;;;;;;;;;;4917672;29;20080;-71
2022/01/13 12:12:33;;;;;;;15.98;6.75;;;;;;;;;;4918883;29;20032;-69
2022/01/13 12:15:16;;;;;;;17.17;7.07;;;;;;;;;;4918833;29;20107;-68
2022/01/13 12:18:01;;;;;;;15.07;7.03;;;;;;;;;;4917488;29;20101;-72
2022/01/13 12:20:40;;;;;;;15.65;6.10;;;;;;;;;;4915711;29;20087;-70
2022/01/13 12:23:26;;;;;;;16.10;7.65;;;;;;;;;;4901760;29;20504;-68
2022/01/13 12:25:52;;;;;;;19.90;8.10;;;;;;;;;;4891931;29;20044;-68
2022/01/13 12:28:18;;;;;;;18.58;7.35;;;;;;;;;;4918898;29;20035;-69
2022/01/13 12:30:45;;;;;;;13.93;6.43;;;;;;;;;;4901537;29;20032;-72
2022/01/13 12:33:11;;;;;;;19.58;6.60;;;;;;;;;;4901444;29;20060;-70
2022/01/13 12:35:37;;;;;;;15.02;6.38;;;;;;;;;;4901344;29;20071;-71
2022/01/13 12:38:12;;;;;;;15.40;5.60;;;;;;;;;;4901421;29;20442;-72
2022/01/13 12:40:43;;;;;;;17.33;6.47;;;;;;;;;;4901299;29;20028;-72
2022/01/13 12:43:32;;;;;;;17.50;8.13;;;;;;;;;;4901394;29;20044;-73
2022/01/13 12:45:59;;;;;;;22.23;8.55;;;;;;;;;;4918274;29;20371;-71
2022/01/13 12:48:28;;;;;;;20.33;8.52;;;;;;;;;;4918225;29;20550;-72
2022/01/13 12:50:54;;;;;;;18.45;8.40;;;;;;;;;;4901169;29;20028;-72
2022/01/13 12:53:23;;;;;;;18.38;8.18;;;;;;;;;;4901129;29;20040;-69
2022/01/13 12:55:58;;;;;;;20.67;9.07;;;;;;;;;;4901055;29;20056;-69
2022/01/13 12:58:27;;;;;;;28.63;9.13;;;;;;;;;;4900871;29;20036;-71
2022/01/13 13:01:02;;;;;;;20.40;9.50;;;;;;;;;;4900874;29;20111;-72
2022/01/13 13:03:28;;;;;;;19.33;8.80;;;;;;;;;;4899915;29;20501;-69
2022/01/13 13:05:56;;;;;;;18.73;8.75;;;;;;;;;;4900870;29;20573;-70
2022/01/13 13:08:23;;;;;;;18.98;8.73;;;;;;;;;;4917808;29;20024;-73
2022/01/13 13:10:50;;;;;;;19.13;8.25;;;;;;;;;;4918058;29;20107;-72
2022/01/13 13:13:18;;;;;;;15.65;7.50;;;;;;;;;;4917676;29;20508;-71
2022/01/13 13:15:51;;;;;;;17.10;7.68;;;;;;;;;;4917705;29;20076;-72
2022/01/13 13:18:19;;;;;;;18.52;8.45;;;;;;;;;;4908089;29;20409;-72
2022/01/13 13:20:48;;;;;;;15.10;7.00;;;;;;;;;;4923272;29;20489;-73
2022/01/13 13:23:14;;;;;;;17.70;7.70;;;;;;;;;;4935314;29;20036;-72
2022/01/13 13:25:42;;;;;;;16.85;7.65;;;;;;;;;;4935120;29;20131;-73
2022/01/13 13:28:27;;;;;;;19.95;7.72;;;;;;;;;;4936613;29;20024;-72
2022/01/13 13:30:55;;;;;;;17.40;8.07;;;;;;;;;;4936575;29;20512;-71
2022/01/13 13:33:42;;;;;;;21.63;8.32;;;;;;;;;;4936449;29;20020;-71
2022/01/13 13:36:10;;;;;;;18.63;8.15;;;;;;;;;;4935197;29;20050;-72
2022/01/13 13:38:57;;;;;;;16.08;7.93;;;;;;;;;;4936382;29;20518;-73
2022/01/13 13:41:30;;;;;;;20.42;8.88;;;;;;;;;;4935096;29;20027;-74
2022/01/13 13:43:56;;;;;;;;;;;;;;;;;;4936004;29;20031;-73
2022/01/13 13:46:23;;;;;;;20.48;9.05;;;;;;;;;;4936204;29;19930;-72
2022/01/13 13:48:49;;;;;;;19.17;9.05;;;;;;;;;;4918702;29;20031;-72
2022/01/13 13:51:23;;;;;;;26.38;9.93;;;;;;;;;;4936363;29;20473;-72
2022/01/13 13:54:12;;;;;;;21.77;9.88;;;;;;;;;;4943752;29;20050;-72
2022/01/13 13:56:46;;;;;;;20.88;10.15;;;;;;;;;;4917417;29;20043;-73
2022/01/13 13:59:12;;;;;;;;;;;;;;;;;;4917553;29;20028;-72
2022/01/13 14:01:38;;;;;;;22.08;10.70;;;;;;;;;;4900048;29;19907;-73
2022/01/13 14:04:04;;;;;;;21.27;8.95;;;;;;;;;;4899978;29;20489;-69
2022/01/13 14:06:41;;;;;;;20.13;9.80;;;;;;;;;;4900085;29;20382;-72
2022/01/13 14:09:07;;;;;;;23.80;9.70;;;;;;;;;;4917214;29;20036;-73
2022/01/13 14:12:03;;;;;;;20.77;9.52;;;;;;;;;;4899962;29;20115;-71
2022/01/13 14:14:35;;;;;;;19.52;8.18;;;;;;;;;;4888662;29;20039;-71
2022/01/13 14:17:01;;;;;;;18.95;9.25;;;;;;;;;;4903981;29;20024;-71
2022/01/13 14:19:27;;;;;;;22.15;9.13;;;;;;;;;;4906495;29;20036;-71
2022/01/13 14:21:53;;;;;;;19.77;8.65;;;;;;;;;;4939608;29;20056;-71
2022/01/13 14:24:30;;;;;;;20.30;9.57;;;;;;;;;;4922355;29;20035;-72
2022/01/13 14:27:13;;;;;;;19.65;9.32;;;;;;;;;;4922678;29;20503;-73
2022/01/13 14:29:40;;;;;;;18.07;9.60;;;;;;;;;;4922460;29;20059;-68
2022/01/13 14:32:33;;;;;;;22.48;9.57;;;;;;;;;;4923187;29;20369;-69
2022/01/13 14:34:59;;;;;;;20.83;9.30;;;;;;;;;;4935710;29;20055;-70
2022/01/13 14:37:26;;;;;;;22.88;9.43;;;;;;;;;;4939411;29;20028;-69
2022/01/13 14:40:10;;;;;;;19.85;9.02;;;;;;;;;;4922322;29;20035;-69
2022/01/13 14:42:36;;;;;;;;;;;;;;;;;;4939818;29;20038;-70
2022/01/13 14:45:22;;;;;;;23.75;9.65;;;;;;;;;;4939460;29;19915;-70
2022/01/13 14:47:48;;;;;;;20.75;9.52;;;;;;;;;;4922156;29;20020;-70
2022/01/13 14:50:15;;;;;;;21.02;9.73;;;;;;;;;;4922312;29;20512;-69
2022/01/13 14:52:41;;;;;;;21.58;9.50;;;;;;;;;;4921590;29;20032;-69
2022/01/13 14:55:07;;;;;;;22.42;9.27;;;;;;;;;;4939146;29;20039;-69
2022/01/13 14:57:33;;;;;;;23.70;10.02;;;;;;;;;;4921828;29;20028;-69